Time;durP1;ratioP1;P1;durP2;ratioP2;P2;SDS_P1;SDS_P2;PMS_P1;PMS_P2;Temp;Humidity;BMP_temperature;BMP_pressure;BME280_temperature;BME280_humidity;BME280_pressure;Samples;Min_cycle;Max_cycle;Signal;HPM_P1;HPM_P2
2020/12/28 00:01:20;;;;;;;12.10;1.70;;;6.00;99.90;;;;;;6163618;23;20051;-91
2020/12/28 00:03:59;;;;;;;13.20;2.00;;;5.90;99.90;;;;;;6163493;23;20022;-91
2020/12/28 00:06:39;;;;;;;10.07;1.98;;;6.00;99.90;;;;;;6163002;23;20068;-91
2020/12/28 00:09:30;;;;;;;9.70;1.42;;;6.00;99.90;;;;;;6163923;23;20013;-91
2020/12/28 00:12:11;;;;;;;7.85;1.30;;;5.90;99.90;;;;;;6162848;23;20025;-91
2020/12/28 00:14:54;;;;;;;8.43;1.33;;;5.80;99.90;;;;;;6163437;23;20013;-91
2020/12/28 00:17:35;;;;;;;9.95;1.38;;;5.70;99.90;;;;;;6163152;23;20013;-91
2020/12/28 00:20:19;;;;;;;13.35;1.88;;;5.60;99.90;;;;;;6163695;23;20028;-91
2020/12/28 00:23:00;;;;;;;13.65;1.73;;;5.50;99.90;;;;;;6163393;23;20024;-91
2020/12/28 00:25:43;;;;;;;11.70;1.70;;;5.50;99.90;;;;;;6162409;23;20032;-91
2020/12/28 00:28:30;;;;;;;10.70;2.15;;;5.40;99.90;;;;;;6164384;23;20075;-91
2020/12/28 00:31:15;;;;;;;15.90;1.88;;;5.50;99.90;;;;;;6163897;23;20021;-91
2020/12/28 00:33:58;;;;;;;12.13;2.40;;;5.50;99.90;;;;;;6164328;23;20049;-92
2020/12/28 00:36:42;;;;;;;9.32;1.60;;;5.60;99.90;;;;;;6162459;23;20017;-91
2020/12/28 00:39:21;;;;;;;6.85;1.05;;;5.60;99.90;;;;;;6163286;23;20028;-92
2020/12/28 00:42:05;;;;;;;7.25;1.65;;;5.70;99.90;;;;;;6164077;23;20040;-91
2020/12/28 00:44:52;;;;;;;7.75;1.08;;;5.70;99.90;;;;;;6163037;23;20422;-91
2020/12/28 00:47:34;;;;;;;7.07;1.30;;;5.70;99.90;;;;;;6162836;23;20504;-90
2020/12/28 00:50:15;;;;;;;9.50;1.40;;;5.70;99.90;;;;;;6162982;23;20024;-90
2020/12/28 00:52:54;;;;;;;10.55;2.03;;;5.70;99.90;;;;;;6163352;23;20021;-91
2020/12/28 00:55:34;;;;;;;8.50;1.38;;;5.70;99.90;;;;;;6163397;23;20294;-91
2020/12/28 00:58:23;;;;;;;9.57;1.52;;;5.60;99.90;;;;;;6164072;23;20021;-92
2020/12/28 01:01:05;;;;;;;21.63;2.55;;;5.50;99.90;;;;;;6162528;23;20021;-91
2020/12/28 01:03:45;;;;;;;9.90;1.75;;;5.40;99.90;;;;;;6163456;23;20016;-91
2020/12/28 01:06:33;;;;;;;13.52;1.85;;;5.30;99.90;;;;;;6163349;23;20068;-92
2020/12/28 01:09:17;;;;;;;9.77;1.95;;;5.30;99.90;;;;;;6163106;23;20017;-91
2020/12/28 01:11:57;;;;;;;9.30;1.35;;;5.20;99.90;;;;;;6162951;23;20017;-91
2020/12/28 01:14:33;;;;;;;8.32;1.70;;;5.20;99.90;;;;;;6162882;23;20052;-90
2020/12/28 01:17:11;;;;;;;11.60;1.75;;;5.20;99.90;;;;;;6162956;23;20088;-91
2020/12/28 01:19:47;;;;;;;10.45;2.03;;;5.10;99.90;;;;;;6162923;23;20037;-91
2020/12/28 01:22:29;;;;;;;8.10;1.50;;;5.10;99.90;;;;;;6163738;23;20017;-92
2020/12/28 01:25:11;;;;;;;9.85;1.30;;;5.10;99.90;;;;;;6165437;23;20017;-92
2020/12/28 01:27:50;;;;;;;5.80;1.13;;;5.10;99.90;;;;;;6164370;23;20017;-91
2020/12/28 01:30:27;;;;;;;10.23;1.42;;;5.10;99.90;;;;;;6164427;23;20027;-92
2020/12/28 01:33:08;;;;;;;10.35;1.20;;;5.00;99.90;;;;;;6164892;23;20013;-91
2020/12/28 01:35:47;;;;;;;11.60;1.50;;;5.00;99.90;;;;;;6164149;23;20088;-91
2020/12/28 01:38:27;;;;;;;12.52;1.52;;;5.00;99.90;;;;;;6164519;23;20445;-91
2020/12/28 01:41:13;;;;;;;11.77;1.90;;;4.90;99.90;;;;;;6165538;23;20092;-92
2020/12/28 01:43:49;;;;;;;7.07;1.42;;;4.90;99.90;;;;;;6163990;23;20032;-91
2020/12/28 01:46:27;;;;;;;9.90;1.40;;;5.00;99.90;;;;;;6165274;23;20079;-91
2020/12/28 01:49:12;;;;;;;7.45;1.70;;;5.00;99.90;;;;;;6164869;23;20039;-91
2020/12/28 01:51:56;;;;;;;14.15;2.10;;;5.00;99.90;;;;;;6165959;23;20020;-91
2020/12/28 01:54:38;;;;;;;10.25;1.48;;;5.10;99.90;;;;;;6187646;23;20026;-92
2020/12/28 01:57:22;;;;;;;12.27;2.33;;;5.20;99.90;;;;;;6164511;23;20021;-91
2020/12/28 02:00:01;;;;;;;19.58;2.30;;;5.20;99.90;;;;;;6188026;23;20950;-91
2020/12/28 02:02:46;;;;;;;6.75;1.48;;;5.20;99.90;;;;;;6158207;23;20017;-91
2020/12/28 02:05:23;;;;;;;13.20;2.10;;;5.30;99.90;;;;;;6134659;23;20029;-91
2020/12/28 02:08:01;;;;;;;13.13;1.88;;;5.30;99.90;;;;;;6134515;23;20330;-91
2020/12/28 02:10:40;;;;;;;13.20;1.88;;;5.30;99.90;;;;;;6134748;23;20013;-91
2020/12/28 02:13:23;;;;;;;13.15;2.05;;;5.40;99.90;;;;;;6134559;23;20022;-91
2020/12/28 02:16:02;;;;;;;14.65;2.10;;;5.40;99.90;;;;;;6134858;23;20013;-92
2020/12/28 02:18:55;;;;;;;9.63;2.20;;;5.40;99.90;;;;;;6135472;23;20017;-93
2020/12/28 02:21:38;;;;;;;9.35;1.55;;;5.40;99.90;;;;;;6134427;23;20018;-91
2020/12/28 02:24:23;;;;;;;8.52;1.50;;;5.40;99.90;;;;;;6134755;23;20014;-90
2020/12/28 02:27:00;;;;;;;;;;;5.30;99.90;;;;;;6134773;23;20017;-91
2020/12/28 02:29:38;;;;;;;11.30;2.20;;;5.30;99.90;;;;;;6157758;23;19923;-91
2020/12/28 02:32:17;;;;;;;15.80;1.92;;;5.20;99.90;;;;;;6134859;23;20024;-91
2020/12/28 02:34:58;;;;;;;8.45;1.27;;;5.20;99.90;;;;;;6133220;23;20018;-91
2020/12/28 02:37:37;;;;;;;12.67;1.53;;;5.20;99.90;;;;;;6134595;23;20028;-91
2020/12/28 02:40:27;;;;;;;8.43;1.27;;;5.20;99.90;;;;;;6136347;23;20018;-92
2020/12/28 02:43:09;;;;;;;10.02;1.40;;;5.10;99.90;;;;;;6135048;23;20017;-91
2020/12/28 02:45:52;;;;;;;10.30;2.05;;;5.10;99.90;;;;;;6134689;23;20319;-92
2020/12/28 02:48:33;;;;;;;11.02;1.42;;;5.10;99.90;;;;;;6134881;23;20021;-92
2020/12/28 02:51:18;;;;;;;6.97;1.17;;;5.00;99.90;;;;;;6136264;23;20092;-91
2020/12/28 02:54:03;;;;;;;10.60;1.13;;;5.10;99.90;;;;;;6135756;23;20052;-91
2020/12/28 02:56:39;;;;;;;;;;;5.10;99.90;;;;;;6134848;23;20413;-92
2020/12/28 02:59:19;;;;;;;8.30;1.13;;;5.10;99.90;;;;;;6158828;23;19923;-91
2020/12/28 03:02:14;;;;;;;10.38;1.90;;;5.20;99.90;;;;;;6158786;23;20096;-91
2020/12/28 03:05:00;;;;;;;13.85;1.90;;;5.30;99.90;;;;;;6165971;23;20024;-92
2020/12/28 03:07:46;;;;;;;9.52;2.00;;;5.40;99.90;;;;;;6165328;23;20334;-91
2020/12/28 03:10:30;;;;;;;13.40;2.55;;;5.40;99.90;;;;;;6188242;23;20517;-91
2020/12/28 03:13:08;;;;;;;11.48;2.40;;;5.50;99.90;;;;;;6187198;23;20021;-91
2020/12/28 03:15:49;;;;;;;10.98;2.15;;;5.50;99.90;;;;;;6163837;23;20021;-91
2020/12/28 03:18:28;;;;;;;19.15;3.10;;;5.50;99.90;;;;;;6163802;23;20025;-91
2020/12/28 03:21:10;;;;;;;12.10;2.28;;;5.50;99.90;;;;;;6187021;23;20013;-91
2020/12/28 03:23:55;;;;;;;17.35;2.67;;;5.60;99.90;;;;;;6163857;23;20464;-90
2020/12/28 03:26:40;;;;;;;18.27;2.83;;;5.60;99.90;;;;;;6163717;23;20076;-91
2020/12/28 03:29:20;;;;;;;21.60;2.38;;;5.70;99.90;;;;;;6163417;23;20091;-91
2020/12/28 03:32:00;;;;;;;21.92;3.65;;;5.70;99.90;;;;;;6163429;23;20021;-90
2020/12/28 03:34:45;;;;;;;19.92;3.30;;;5.80;99.90;;;;;;6163687;23;20068;-91
2020/12/28 03:37:25;;;;;;;29.25;3.63;;;5.80;99.90;;;;;;6162905;23;20453;-91
2020/12/28 03:40:15;;;;;;;23.90;4.32;;;5.80;99.90;;;;;;6164927;23;20017;-91
2020/12/28 03:42:55;;;;;;;21.15;3.60;;;5.80;99.90;;;;;;6163749;23;20028;-92
2020/12/28 03:45:36;;;;;;;26.60;4.13;;;5.80;99.90;;;;;;6161804;23;20033;-91
2020/12/28 03:48:21;;;;;;;28.95;4.65;;;5.90;99.90;;;;;;6163240;23;20040;-91
2020/12/28 03:51:06;;;;;;;26.60;4.25;;;5.90;99.90;;;;;;6162938;23;20442;-91
2020/12/28 03:53:47;;;;;;;28.08;4.00;;;6.00;99.90;;;;;;6162438;23;20035;-91
2020/12/28 03:56:34;;;;;;;25.63;4.43;;;6.00;99.90;;;;;;6163783;23;20037;-91
2020/12/28 03:59:15;;;;;;;38.80;5.43;;;6.10;99.90;;;;;;6187439;23;20025;-90
2020/12/28 04:02:00;;;;;;;28.92;5.28;;;6.10;99.90;;;;;;6163210;23;20044;-91
2020/12/28 04:04:43;;;;;;;36.58;5.22;;;6.20;99.90;;;;;;6164136;23;20021;-91
2020/12/28 04:07:23;;;;;;;26.10;4.37;;;6.20;99.90;;;;;;6162306;23;20013;-91
2020/12/28 04:10:00;;;;;;;29.00;4.57;;;6.30;99.90;;;;;;6186755;23;20449;-91
2020/12/28 04:12:39;;;;;;;;;;;6.40;99.90;;;;;;6187079;23;20092;-91
2020/12/28 04:15:21;;;;;;;30.73;4.88;;;6.40;99.90;;;;;;6162957;23;19923;-90
2020/12/28 04:18:04;;;;;;;25.95;4.38;;;6.50;99.90;;;;;;6163547;23;20021;-91
2020/12/28 04:20:45;;;;;;;31.42;4.72;;;6.50;99.90;;;;;;6163373;23;20040;-91
2020/12/28 04:23:25;;;;;;;37.28;5.55;;;6.60;99.90;;;;;;6186418;23;20044;-91
2020/12/28 04:26:05;;;;;;;34.95;5.53;;;6.60;99.90;;;;;;6163416;23;20021;-91
2020/12/28 04:28:53;;;;;;;35.55;4.90;;;6.60;99.90;;;;;;6164920;23;20016;-91
2020/12/28 04:31:35;;;;;;;27.02;5.00;;;6.60;99.90;;;;;;6186994;23;20017;-90
2020/12/28 04:34:23;;;;;;;27.58;5.40;;;6.60;99.90;;;;;;6188037;23;20033;-91
2020/12/28 04:37:02;;;;;;;33.78;5.88;;;6.70;99.90;;;;;;6163140;23;20036;-91
2020/12/28 04:39:50;;;;;;;34.72;4.90;;;6.70;99.90;;;;;;6186805;23;20028;-91
2020/12/28 04:42:29;;;;;;;28.65;5.45;;;6.70;99.90;;;;;;6164038;23;20330;-90
2020/12/28 04:45:10;;;;;;;34.17;6.07;;;6.70;99.90;;;;;;6163536;23;20023;-91
2020/12/28 04:47:54;;;;;;;29.40;4.78;;;6.80;99.90;;;;;;6163610;23;20032;-90
2020/12/28 04:50:41;;;;;;;33.53;5.13;;;6.80;99.90;;;;;;6163663;23;20471;-91
2020/12/28 04:53:20;;;;;;;36.95;5.65;;;6.90;99.90;;;;;;6163433;23;20064;-92
2020/12/28 04:56:03;;;;;;;39.50;6.40;;;7.00;99.90;;;;;;6163431;23;20025;-91
2020/12/28 04:58:49;;;;;;;42.85;5.97;;;7.00;99.90;;;;;;6165271;23;20088;-91
2020/12/28 05:01:39;;;;;;;47.35;7.03;;;7.10;99.90;;;;;;6166579;23;20465;-92
2020/12/28 05:04:27;;;;;;;41.20;5.55;;;7.20;99.90;;;;;;6188892;23;20079;-91
2020/12/28 05:07:13;;;;;;;38.50;6.50;;;7.20;99.90;;;;;;6166361;23;20021;-91
2020/12/28 05:09:49;;;;;;;43.80;6.25;;;7.30;99.90;;;;;;6163974;23;20017;-91
2020/12/28 05:12:35;;;;;;;44.53;6.60;;;7.30;99.90;;;;;;6165296;23;20020;-91
2020/12/28 05:15:25;;;;;;;38.50;6.93;;;7.30;99.90;;;;;;6188335;23;20017;-92
2020/12/28 05:18:14;;;;;;;39.00;5.35;;;7.40;99.90;;;;;;6165070;23;20025;-93
2020/12/28 05:20:59;;;;;;;38.83;5.47;;;7.40;99.90;;;;;;6164638;23;20037;-92
2020/12/28 05:23:44;;;;;;;29.30;5.00;;;7.40;99.90;;;;;;6166108;23;20017;-92
2020/12/28 05:26:34;;;;;;;27.35;5.07;;;7.50;99.90;;;;;;6167697;23;20021;-92
2020/12/28 05:29:21;;;;;;;39.45;5.47;;;7.60;99.90;;;;;;6164821;23;20429;-92
2020/12/28 05:32:07;;;;;;;30.23;5.35;;;7.70;99.90;;;;;;6165673;23;20076;-92
2020/12/28 05:34:54;;;;;;;42.00;5.80;;;7.70;99.90;;;;;;6164638;23;20096;-92
2020/12/28 05:37:47;;;;;;;38.53;4.82;;;7.80;99.90;;;;;;6166558;23;20048;-92
2020/12/28 05:40:33;;;;;;;34.70;5.60;;;7.90;99.90;;;;;;6166334;23;20036;-92
2020/12/28 05:43:16;;;;;;;26.92;4.03;;;7.90;99.90;;;;;;6165683;23;20100;-92
2020/12/28 05:45:58;;;;;;;25.60;4.53;;;8.00;99.90;;;;;;6164606;23;20029;-92
2020/12/28 05:48:37;;;;;;;30.58;5.45;;;8.00;99.90;;;;;;6164299;23;20080;-92
2020/12/28 05:51:21;;;;;;;29.77;4.43;;;8.00;99.90;;;;;;6165129;23;20064;-92
2020/12/28 05:54:09;;;;;;;28.27;5.22;;;8.10;99.90;;;;;;6165712;23;20441;-92
2020/12/28 05:56:51;;;;;;;27.27;5.15;;;8.10;99.90;;;;;;6164552;23;20029;-91
2020/12/28 05:59:31;;;;;;;21.98;4.30;;;8.10;99.90;;;;;;6165298;23;20017;-92
2020/12/28 06:02:13;;;;;;;33.17;4.63;;;8.10;99.90;;;;;;6165930;23;20076;-92
2020/12/28 06:05:07;;;;;;;17.98;3.47;;;8.10;99.90;;;;;;6167290;23;20433;-92
2020/12/28 06:07:50;;;;;;;25.35;4.07;;;8.10;99.90;;;;;;6189805;23;20060;-92
2020/12/28 06:10:53;;;;;;;21.15;3.72;;;8.10;99.90;;;;;;6169502;23;20036;-91
2020/12/28 06:13:36;;;;;;;29.05;4.80;;;8.10;99.90;;;;;;6189730;23;20096;-91
2020/12/28 06:16:26;;;;;;;25.38;3.78;;;8.10;99.90;;;;;;6189388;23;20017;-92
2020/12/28 06:19:19;;;;;;;24.05;4.40;;;8.10;99.90;;;;;;6165672;23;20017;-92
2020/12/28 06:22:04;;;;;;;22.95;3.97;;;8.00;99.90;;;;;;6165018;23;20023;-93
2020/12/28 06:24:45;;;;;;;28.67;4.85;;;7.90;99.90;;;;;;6165702;23;20103;-92
2020/12/28 06:27:37;;;;;;;27.98;5.03;;;7.80;99.90;;;;;;6166033;23;20369;-92
2020/12/28 06:30:24;;;;;;;27.52;4.63;;;7.80;99.90;;;;;;6164949;23;20020;-91
2020/12/28 06:33:09;;;;;;;24.55;3.85;;;7.80;99.90;;;;;;6164879;23;20052;-91
2020/12/28 06:35:56;;;;;;;34.80;4.78;;;7.90;99.90;;;;;;6164283;23;20025;-91
2020/12/28 06:38:37;;;;;;;25.75;4.90;;;7.90;99.90;;;;;;6164373;23;20377;-92
2020/12/28 06:41:25;;;;;;;29.88;5.70;;;7.90;99.90;;;;;;6164676;23;20083;-91
2020/12/28 06:44:04;;;;;;;21.77;3.93;;;7.90;99.90;;;;;;6164483;23;20013;-91
2020/12/28 06:46:46;;;;;;;22.92;4.35;;;8.00;99.90;;;;;;6164731;23;20079;-92
2020/12/28 06:49:35;;;;;;;26.25;3.67;;;8.10;99.90;;;;;;6164920;23;20703;-91
2020/12/28 06:52:24;;;;;;;19.77;3.55;;;8.10;99.90;;;;;;6165584;23;20043;-91
2020/12/28 06:55:15;;;;;;;18.40;3.95;;;8.20;99.90;;;;;;6163924;23;20028;-91
2020/12/28 06:58:07;;;;;;;22.67;3.78;;;8.20;99.90;;;;;;6187972;23;20017;-92
2020/12/28 07:01:11;;;;;;;27.40;3.47;;;8.30;99.90;;;;;;6165523;23;20021;-92
2020/12/28 07:03:52;;;;;;;22.00;3.13;;;8.40;99.90;;;;;;6163095;23;20023;-91
2020/12/28 07:06:39;;;;;;;22.67;3.83;;;8.40;99.90;;;;;;6163721;23;20024;-91
2020/12/28 07:09:24;;;;;;;20.90;3.55;;;8.40;99.90;;;;;;6164483;23;20091;-91
2020/12/28 07:12:23;;;;;;;25.77;3.72;;;8.40;99.90;;;;;;6165423;23;20025;-91
2020/12/28 07:15:16;;;;;;;26.73;4.00;;;8.40;99.90;;;;;;6165759;23;20021;-92
2020/12/28 07:18:11;;;;;;;24.20;3.78;;;8.30;99.90;;;;;;6187571;23;20065;-92
2020/12/28 07:21:04;;;;;;;12.18;2.08;;;8.20;99.90;;;;;;6165460;23;20033;-92
2020/12/28 07:23:48;;;;;;;13.20;2.35;;;8.10;99.90;;;;;;6164233;23;20027;-90
2020/12/28 07:26:29;;;;;;;11.82;2.30;;;8.10;99.90;;;;;;6164972;23;20460;-90
2020/12/28 07:29:11;;;;;;;10.40;2.83;;;8.00;99.90;;;;;;6163616;23;20032;-90
2020/12/28 07:31:50;;;;;;;21.00;3.05;;;8.00;99.90;;;;;;6187850;23;20013;-91
2020/12/28 07:34:35;;;;;;;18.10;2.97;;;8.00;99.90;;;;;;6187950;23;20079;-91
2020/12/28 07:37:37;;;;;;;21.20;3.08;;;7.90;99.90;;;;;;6168255;23;20024;-91
2020/12/28 07:40:22;;;;;;;19.73;3.70;;;7.90;99.90;;;;;;6187804;23;20028;-90
2020/12/28 07:43:18;;;;;;;24.77;4.43;;;7.90;99.90;;;;;;6166763;23;20065;-91
2020/12/28 07:46:27;;;;;;;24.80;3.63;;;7.90;99.90;;;;;;6166012;23;20457;-91
2020/12/28 07:49:29;;;;;;;26.23;3.90;;;7.90;99.90;;;;;;6164733;23;20017;-90
2020/12/28 07:52:29;;;;;;;36.25;4.47;;;7.90;99.90;;;;;;6165612;23;20017;-91
2020/12/28 07:55:29;;;;;;;35.70;5.43;;;8.00;99.90;;;;;;6187736;23;20024;-91
2020/12/28 07:58:24;;;;;;;39.50;5.38;;;8.00;99.90;;;;;;6189755;23;20046;-91
2020/12/28 08:01:14;;;;;;;35.95;4.50;;;8.00;99.90;;;;;;6164400;23;20097;-91
2020/12/28 08:03:55;;;;;;;29.23;4.38;;;8.00;99.90;;;;;;6164360;23;20021;-91
2020/12/28 08:06:46;;;;;;;31.30;5.32;;;8.00;99.90;;;;;;6164960;23;20456;-90
2020/12/28 08:09:36;;;;;;;37.03;6.05;;;8.00;99.90;;;;;;6163959;23;20388;-91
2020/12/28 08:12:25;;;;;;;43.67;6.85;;;8.00;99.90;;;;;;6164026;23;20069;-93
2020/12/28 08:15:14;;;;;;;51.65;7.20;;;8.00;99.90;;;;;;6164323;23;20072;-90
2020/12/28 08:18:16;;;;;;;51.58;7.78;;;8.10;99.90;;;;;;6188557;23;20017;-91
2020/12/28 08:21:06;;;;;;;51.00;8.43;;;8.10;99.90;;;;;;6164985;23;20017;-92
2020/12/28 08:24:02;;;;;;;41.83;6.40;;;8.20;99.90;;;;;;6164539;23;20017;-92
2020/12/28 08:26:46;;;;;;;36.40;6.18;;;8.30;99.90;;;;;;6164455;23;20087;-92
2020/12/28 08:29:29;;;;;;;26.92;4.55;;;8.40;99.90;;;;;;6186987;23;20029;-92
2020/12/28 08:32:16;;;;;;;37.90;5.63;;;8.40;99.90;;;;;;6164096;23;20017;-92
2020/12/28 08:34:59;;;;;;;40.35;6.15;;;8.50;99.90;;;;;;6164720;23;20028;-90
2020/12/28 08:37:47;;;;;;;48.38;6.35;;;8.60;99.90;;;;;;6189603;23;20017;-90
2020/12/28 08:40:34;;;;;;;51.28;6.47;;;8.60;99.90;;;;;;6166644;23;20044;-92
2020/12/28 08:43:26;;;;;;;34.60;5.95;;;8.70;99.90;;;;;;6167733;23;20025;-93
2020/12/28 08:46:08;;;;;;;17.17;2.95;;;8.70;99.90;;;;;;6165623;23;20020;-93
2020/12/28 08:48:57;;;;;;;16.77;2.78;;;8.40;99.90;;;;;;6166025;23;20067;-92
2020/12/28 08:51:44;;;;;;;21.77;3.33;;;8.10;99.90;;;;;;6166247;23;20017;-92
2020/12/28 08:54:36;;;;;;;19.42;3.25;;;7.90;99.90;;;;;;6165234;23;20382;-91
2020/12/28 08:57:44;;;;;;;43.15;5.05;;;7.70;99.90;;;;;;6164992;23;20142;-91
2020/12/28 09:00:47;;;;;;;40.20;4.95;;;7.60;99.90;;;;;;6168934;23;20088;-92
2020/12/28 09:03:32;;;;;;;29.05;4.68;;;7.60;99.90;;;;;;6166095;23;20040;-92
2020/12/28 09:06:17;;;;;;;42.92;4.75;;;7.70;99.90;;;;;;6164852;23;20031;-93
2020/12/28 09:09:01;;;;;;;21.33;2.80;;;7.80;99.90;;;;;;6164989;23;20021;-92
2020/12/28 09:11:44;;;;;;;17.30;3.20;;;7.80;99.90;;;;;;6164538;23;20017;-93
2020/12/28 09:14:30;;;;;;;22.05;3.15;;;7.80;99.90;;;;;;6166015;23;20021;-92
2020/12/28 09:17:28;;;;;;;16.48;2.50;;;7.70;99.90;;;;;;6166660;23;20040;-92
2020/12/28 09:20:19;;;;;;;22.20;2.95;;;7.80;99.90;;;;;;6167267;23;20032;-92
2020/12/28 09:22:53;;;;;;;17.35;2.75;;;7.70;99.90;;;;;;6164454;23;20020;-92
2020/12/28 09:25:36;;;;;;;21.77;3.40;;;7.70;99.90;;;;;;6166366;23;20017;-92
2020/12/28 09:28:19;;;;;;;15.55;3.20;;;7.70;99.90;;;;;;6165100;23;20023;-92
2020/12/28 09:31:13;;;;;;;14.38;3.10;;;7.60;99.90;;;;;;6166250;23;20024;-90
2020/12/28 09:34:00;;;;;;;18.42;2.20;;;7.70;99.90;;;;;;6165941;23;20096;-92
2020/12/28 09:36:43;;;;;;;22.25;3.38;;;7.70;99.90;;;;;;6164901;23;20017;-92
2020/12/28 09:39:25;;;;;;;19.58;3.63;;;7.70;99.90;;;;;;6165797;23;20017;-92
2020/12/28 09:42:10;;;;;;;27.15;3.83;;;7.80;99.90;;;;;;6166476;23;20067;-91
2020/12/28 09:44:59;;;;;;;24.00;3.25;;;7.80;99.90;;;;;;6165640;23;20088;-91
2020/12/28 09:47:51;;;;;;;21.15;3.47;;;7.90;99.90;;;;;;6166478;23;20036;-91
2020/12/28 09:50:53;;;;;;;30.77;5.22;;;8.00;99.90;;;;;;6169510;23;20052;-92
2020/12/28 09:53:40;;;;;;;28.52;4.72;;;8.10;99.90;;;;;;6165216;23;20048;-91
2020/12/28 09:56:34;;;;;;;20.15;3.08;;;8.10;99.90;;;;;;6167416;23;20017;-91
2020/12/28 09:59:20;;;;;;;14.63;2.63;;;8.10;99.90;;;;;;6165845;23;20033;-91
2020/12/28 10:02:15;;;;;;;22.98;2.85;;;8.20;99.90;;;;;;6166727;23;20048;-91
2020/12/28 10:05:00;;;;;;;23.85;3.88;;;8.30;99.90;;;;;;6166019;23;20044;-92
2020/12/28 10:07:51;;;;;;;24.60;4.32;;;8.40;99.90;;;;;;6166239;23;20048;-91
2020/12/28 10:10:38;;;;;;;17.52;3.80;;;8.40;99.90;;;;;;6164740;23;20322;-91
2020/12/28 10:13:24;;;;;;;21.65;3.72;;;8.40;99.90;;;;;;6164731;23;20017;-91
2020/12/28 10:16:05;;;;;;;21.15;3.65;;;8.30;99.90;;;;;;6164434;23;20021;-91
2020/12/28 10:18:55;;;;;;;23.85;3.53;;;8.30;99.90;;;;;;6165901;23;20021;-91
2020/12/28 10:21:42;;;;;;;27.33;3.15;;;8.40;99.90;;;;;;6164555;23;20017;-92
2020/12/28 10:24:34;;;;;;;20.80;3.15;;;8.20;99.90;;;;;;6164519;23;20024;-91
2020/12/28 10:27:18;;;;;;;28.38;3.63;;;7.50;99.90;;;;;;6164937;23;20339;-91
2020/12/28 10:30:01;;;;;;;19.83;4.43;;;7.30;99.90;;;;;;6163977;23;20096;-90
2020/12/28 10:32:46;;;;;;;24.55;4.25;;;7.30;99.90;;;;;;6164405;23;20024;-91
2020/12/28 10:35:26;;;;;;;22.45;4.22;;;7.30;99.90;;;;;;6164708;23;20325;-91
2020/12/28 10:38:13;;;;;;;24.95;3.90;;;7.40;99.90;;;;;;6164618;23;20016;-91
2020/12/28 10:41:01;;;;;;;21.73;3.20;;;7.50;99.90;;;;;;6165819;23;20092;-90
2020/12/28 10:43:50;;;;;;;14.82;3.30;;;7.40;99.90;;;;;;6165563;23;20021;-89
2020/12/28 10:46:34;;;;;;;18.52;3.83;;;7.40;99.90;;;;;;6163681;23;20105;-89
2020/12/28 10:49:24;;;;;;;27.20;3.38;;;7.30;99.90;;;;;;6165854;23;20017;-93
2020/12/28 10:52:09;;;;;;;21.17;3.53;;;7.30;99.90;;;;;;6163648;23;20019;-92
2020/12/28 10:54:53;;;;;;;19.20;3.35;;;7.40;99.90;;;;;;6186611;23;20020;-92
2020/12/28 10:57:32;;;;;;;17.10;2.58;;;7.50;99.90;;;;;;6163258;23;20024;-91
2020/12/28 11:00:22;;;;;;;17.20;3.10;;;7.80;99.90;;;;;;6165727;23;20028;-92
2020/12/28 11:03:05;;;;;;;24.35;3.55;;;8.00;99.90;;;;;;6188778;23;20025;-92
2020/12/28 11:05:59;;;;;;;19.25;3.55;;;8.20;99.90;;;;;;6166172;23;20098;-92
2020/12/28 11:08:38;;;;;;;;;;;8.40;99.90;;;;;;6165150;23;20036;-92
2020/12/28 11:11:23;;;;;;;30.60;4.13;;;8.50;99.90;;;;;;6165332;23;19991;-92
2020/12/28 11:14:08;;;;;;;32.13;4.63;;;8.60;99.90;;;;;;6165152;23;20031;-92
2020/12/28 11:16:54;;;;;;;23.27;3.28;;;8.70;99.90;;;;;;6165508;23;20340;-92
2020/12/28 11:19:35;;;;;;;21.20;3.55;;;8.80;99.90;;;;;;6164721;23;20109;-92
2020/12/28 11:22:20;;;;;;;22.73;5.20;;;8.90;99.90;;;;;;6165413;23;20032;-93
2020/12/28 11:25:00;;;;;;;23.10;4.75;;;9.00;99.90;;;;;;6163515;23;20017;-92
2020/12/28 11:27:46;;;;;;;16.98;4.00;;;9.00;99.90;;;;;;6165047;23;20417;-92
2020/12/28 11:30:28;;;;;;;18.52;3.40;;;8.70;99.90;;;;;;6163899;23;20548;-92
2020/12/28 11:33:20;;;;;;;18.38;3.28;;;8.50;99.90;;;;;;6164484;23;20068;-92
2020/12/28 11:36:06;;;;;;;14.60;2.63;;;8.30;99.90;;;;;;6163074;23;20017;-93
2020/12/28 11:38:48;;;;;;;17.73;3.08;;;8.10;99.90;;;;;;6163519;23;20346;-92
2020/12/28 11:41:35;;;;;;;14.80;3.00;;;8.10;99.90;;;;;;6163354;23;20017;-91
2020/12/28 11:44:24;;;;;;;18.30;3.33;;;8.00;99.90;;;;;;6164104;23;20025;-92
2020/12/28 11:47:06;;;;;;;20.77;4.07;;;8.10;99.90;;;;;;6163955;23;20013;-92
2020/12/28 11:49:47;;;;;;;24.55;3.83;;;8.20;99.90;;;;;;6186748;23;20334;-91
2020/12/28 11:52:26;;;;;;;21.63;3.78;;;8.20;99.90;;;;;;6163753;23;20017;-92
2020/12/28 11:55:08;;;;;;;22.45;4.07;;;7.80;99.90;;;;;;6163755;23;20017;-92
2020/12/28 11:57:51;;;;;;;35.17;5.15;;;7.60;99.90;;;;;;6163153;23;20020;-92
2020/12/28 12:00:37;;;;;;;29.20;4.45;;;7.60;99.90;;;;;;6162709;23;20016;-91
2020/12/28 12:03:11;;;;;;;27.63;4.95;;;7.60;99.90;;;;;;6185244;23;20017;-91
2020/12/28 12:05:49;;;;;;;25.30;4.07;;;7.50;99.90;;;;;;6186336;23;20298;-91
2020/12/28 12:08:29;;;;;;;33.28;5.43;;;7.50;99.90;;;;;;6162940;23;20017;-92
2020/12/28 12:11:14;;;;;;;22.23;3.95;;;7.60;99.90;;;;;;6164092;23;20027;-91
2020/12/28 12:13:47;;;;;;;28.40;4.32;;;7.70;99.90;;;;;;6161812;23;20017;-91
2020/12/28 12:16:24;;;;;;;28.60;4.70;;;7.80;99.90;;;;;;6161869;23;20028;-91
2020/12/28 12:19:07;;;;;;;22.70;3.80;;;7.80;99.90;;;;;;6162679;23;20020;-91
2020/12/28 12:21:47;;;;;;;24.70;4.55;;;8.00;99.90;;;;;;6162282;23;20020;-91
2020/12/28 12:24:23;;;;;;;18.45;2.92;;;8.10;99.90;;;;;;6162500;23;20075;-91
2020/12/28 12:27:07;;;;;;;17.10;3.78;;;8.20;99.90;;;;;;6164762;23;20418;-91
2020/12/28 12:29:50;;;;;;;19.88;3.55;;;8.40;99.90;;;;;;6163401;23;20326;-91
2020/12/28 12:32:40;;;;;;;22.17;4.65;;;8.20;99.90;;;;;;6164782;23;20024;-91
2020/12/28 12:35:15;;;;;;;23.30;3.55;;;7.90;99.90;;;;;;6160876;23;20028;-91
2020/12/28 12:37:55;;;;;;;25.40;4.50;;;7.60;99.90;;;;;;6164230;23;20037;-90
2020/12/28 12:40:34;;;;;;;19.00;3.45;;;7.40;99.90;;;;;;6164047;23;20277;-90
2020/12/28 12:43:15;;;;;;;20.90;3.53;;;7.40;99.90;;;;;;6163898;23;20028;-90
2020/12/28 12:46:00;;;;;;;29.73;4.85;;;7.40;99.90;;;;;;6163547;23;20025;-90
2020/12/28 12:48:47;;;;;;;21.00;4.03;;;7.50;99.90;;;;;;6163604;23;20069;-90
2020/12/28 12:51:30;;;;;;;24.95;4.65;;;7.50;99.90;;;;;;6163018;23;20021;-90
2020/12/28 12:54:08;;;;;;;28.85;5.32;;;7.60;99.90;;;;;;6162796;23;20500;-90
2020/12/28 12:56:51;;;;;;;36.05;5.22;;;7.70;99.90;;;;;;6163493;23;20017;-91
2020/12/28 12:59:31;;;;;;;35.65;5.43;;;7.90;99.90;;;;;;6163048;23;20028;-90
2020/12/28 13:02:05;;;;;;;;;;;8.00;99.90;;;;;;6162585;23;20100;-90
2020/12/28 13:04:37;;;;;;;28.80;4.05;;;8.20;99.90;;;;;;6161510;23;19916;-90
2020/12/28 13:07:19;;;;;;;19.88;4.07;;;8.40;99.90;;;;;;6162438;23;20021;-90
2020/12/28 13:10:01;;;;;;;26.85;3.88;;;8.60;99.90;;;;;;6162760;23;20096;-91
2020/12/28 13:12:44;;;;;;;23.48;4.68;;;8.70;99.90;;;;;;6162276;23;20028;-90
2020/12/28 13:15:32;;;;;;;25.48;3.88;;;8.90;99.90;;;;;;6163084;23;20021;-91
2020/12/28 13:18:11;;;;;;;21.13;4.20;;;8.90;99.90;;;;;;6162997;23;20062;-91
2020/12/28 13:20:52;;;;;;;20.73;4.13;;;8.90;99.90;;;;;;6163708;23;20044;-91
2020/12/28 13:23:32;;;;;;;26.90;4.30;;;9.00;99.90;;;;;;6164221;23;20092;-91
2020/12/28 13:26:18;;;;;;;27.08;4.55;;;9.00;99.90;;;;;;6165721;23;20028;-91
2020/12/28 13:29:00;;;;;;;20.10;4.00;;;9.00;99.90;;;;;;6165349;23;20275;-91
2020/12/28 13:31:52;;;;;;;18.70;3.95;;;9.10;99.90;;;;;;6165764;23;20068;-91
2020/12/28 13:34:37;;;;;;;18.20;3.50;;;9.10;99.90;;;;;;6164645;23;20341;-91
2020/12/28 13:37:20;;;;;;;18.23;4.45;;;9.10;99.90;;;;;;6165196;23;20021;-91
2020/12/28 13:40:08;;;;;;;26.05;4.25;;;9.10;99.90;;;;;;6189317;23;20017;-91
2020/12/28 13:42:57;;;;;;;24.02;3.33;;;9.20;99.90;;;;;;6166450;23;20020;-91
2020/12/28 13:45:39;;;;;;;16.17;3.45;;;9.20;99.90;;;;;;6163645;23;20049;-91
2020/12/28 13:48:22;;;;;;;18.85;2.90;;;9.20;99.90;;;;;;6164238;23;20667;-91
2020/12/28 13:51:02;;;;;;;16.27;3.10;;;9.20;99.90;;;;;;6164421;23;20017;-90
2020/12/28 13:53:49;;;;;;;16.27;3.00;;;9.10;99.90;;;;;;6165239;23;20024;-91
2020/12/28 13:56:31;;;;;;;17.80;3.33;;;9.20;99.90;;;;;;6163792;23;20045;-91
2020/12/28 13:59:23;;;;;;;18.98;2.70;;;9.20;99.90;;;;;;6188044;23;20019;-91
2020/12/28 14:02:04;;;;;;;18.77;4.10;;;9.20;99.90;;;;;;6163431;23;20445;-91
2020/12/28 14:04:57;;;;;;;18.83;3.55;;;9.20;99.90;;;;;;6166274;23;20029;-91
2020/12/28 14:07:43;;;;;;;21.40;3.55;;;9.20;99.90;;;;;;6165402;23;20043;-91
2020/12/28 14:10:36;;;;;;;22.23;3.25;;;9.20;99.90;;;;;;6165210;23;20021;-91
2020/12/28 14:13:22;;;;;;;21.65;3.13;;;9.20;99.90;;;;;;6165332;23;20096;-91
2020/12/28 14:16:17;;;;;;;19.23;3.05;;;9.20;99.90;;;;;;6165944;23;20028;-91
2020/12/28 14:19:08;;;;;;;15.00;3.10;;;9.20;99.90;;;;;;6166240;23;20013;-91
2020/12/28 14:21:57;;;;;;;25.80;3.95;;;9.10;99.90;;;;;;6166449;23;20013;-91